createdAt,value
2017-11-27T00:01:58.905Z,100349.77
2017-11-27T00:04:24.924Z,100352.55
2017-11-27T00:06:50.879Z,100347.03
2017-11-27T00:09:16.843Z,100348.23
2017-11-27T00:11:42.774Z,100346.55
2017-11-27T00:14:08.699Z,100345.02
2017-11-27T00:16:34.623Z,100337.02
2017-11-27T00:19:00.570Z,100339.69
2017-11-27T00:21:26.501Z,100337.23
2017-11-27T00:23:52.452Z,100347.84
2017-11-27T00:26:18.390Z,100344.64
2017-11-27T00:28:44.327Z,100344.21
2017-11-27T00:31:10.284Z,100342.19
2017-11-27T00:33:36.218Z,100343.91
2017-11-27T00:36:02.158Z,100355.17
2017-11-27T00:38:28.083Z,100346.70
2017-11-27T00:40:54.033Z,100350.53
2017-11-27T00:43:19.980Z,100352.66
2017-11-27T00:45:45.915Z,100349.88
2017-11-27T00:48:11.865Z,100351.25
2017-11-27T00:50:37.813Z,100360.62
2017-11-27T00:53:03.815Z,100353.20
2017-11-27T00:55:29.761Z,100364.42
2017-11-27T00:57:55.685Z,100352.66
2017-11-27T01:00:21.625Z,100353.91
2017-11-27T01:02:47.576Z,100361.61
2017-11-27T01:05:13.526Z,100370.00
2017-11-27T01:07:39.688Z,100365.64
2017-11-27T01:10:05.617Z,100371.99
2017-11-27T01:12:31.547Z,100368.81
2017-11-27T01:14:57.541Z,100366.48
2017-11-27T01:17:23.469Z,100367.45
2017-11-27T01:19:49.426Z,100363.05
2017-11-27T01:22:15.366Z,100378.11
2017-11-27T01:24:41.299Z,100374.00
2017-11-27T01:27:07.244Z,100371.91
2017-11-27T01:29:33.182Z,100377.09
2017-11-27T01:31:59.133Z,100374.34
2017-11-27T01:34:25.075Z,100371.52
2017-11-27T01:36:51.001Z,100378.86
2017-11-27T01:39:16.935Z,100376.55
2017-11-27T01:41:42.873Z,100380.73
2017-11-27T01:44:08.807Z,100384.46
2017-11-27T01:46:34.767Z,100382.34
2017-11-27T01:49:00.714Z,100381.88
2017-11-27T01:51:26.642Z,100379.33
2017-11-27T01:53:52.567Z,100383.80
2017-11-27T01:56:18.502Z,100381.67
2017-11-27T01:58:44.467Z,100380.73
2017-11-27T02:01:10.401Z,100378.33
2017-11-27T02:03:36.319Z,100383.44
2017-11-27T02:06:02.250Z,100382.31
2017-11-27T02:08:28.197Z,100384.23
2017-11-27T02:10:54.149Z,100381.13
2017-11-27T02:13:20.091Z,100383.21
2017-11-27T02:15:46.016Z,100383.95
2017-11-27T02:18:11.939Z,100384.42
2017-11-27T02:20:37.875Z,100389.09
2017-11-27T02:23:03.810Z,100376.55
2017-11-27T02:25:29.757Z,100379.02
2017-11-27T02:27:55.744Z,100382.62
2017-11-27T02:30:21.695Z,100380.23
2017-11-27T02:32:47.636Z,100378.98
2017-11-27T02:35:13.561Z,100377.59
2017-11-27T02:37:39.492Z,100371.27
2017-11-27T02:40:05.471Z,100371.61
2017-11-27T02:42:31.403Z,100381.95
2017-11-27T02:44:57.352Z,100379.69
2017-11-27T02:47:23.301Z,100383.60
2017-11-27T02:49:49.222Z,100390.23
2017-11-27T02:52:15.167Z,100381.75
2017-11-27T02:54:41.112Z,100383.48
2017-11-27T02:57:07.049Z,100386.42
2017-11-27T02:59:32.973Z,100384.23
2017-11-27T03:01:58.905Z,100387.83
2017-11-27T03:04:24.835Z,100384.23
2017-11-27T03:06:50.781Z,100380.70
2017-11-27T03:09:16.718Z,100381.33
2017-11-27T03:11:42.673Z,100384.54
2017-11-27T03:14:08.610Z,100380.94
2017-11-27T03:16:34.536Z,100383.13
2017-11-27T03:19:00.512Z,100385.33
2017-11-27T03:21:26.439Z,100384.47
2017-11-27T03:23:52.390Z,100389.75
2017-11-27T03:26:18.357Z,100379.36
2017-11-27T03:28:44.289Z,100375.17
2017-11-27T03:31:10.236Z,100377.95
2017-11-27T03:33:36.177Z,100369.20
2017-11-27T03:36:02.138Z,100375.09
2017-11-27T03:38:28.125Z,100371.61
2017-11-27T03:40:54.064Z,100379.87
2017-11-27T03:43:19.997Z,100383.05
2017-11-27T03:45:45.928Z,100382.31
2017-11-27T03:48:11.851Z,100375.13
2017-11-27T03:50:37.809Z,100384.23
2017-11-27T03:53:03.757Z,100384.86
2017-11-27T03:55:29.707Z,100380.47
2017-11-27T03:57:55.643Z,100386.94
2017-11-27T04:00:21.598Z,100388.27
2017-11-27T04:02:47.538Z,100376.03
2017-11-27T04:05:13.477Z,100385.64
2017-11-27T04:07:39.421Z,100370.98
2017-11-27T04:10:05.351Z,100376.55
2017-11-27T04:12:31.279Z,100377.80
2017-11-27T04:14:57.237Z,100377.41
2017-11-27T04:17:23.180Z,100385.72
2017-11-27T04:19:49.119Z,100381.20
2017-11-27T04:22:15.071Z,100385.95
2017-11-27T04:24:41.007Z,100379.95
2017-11-27T04:27:06.973Z,100382.94
2017-11-27T04:29:32.908Z,100384.03
2017-11-27T04:31:58.878Z,100383.52
2017-11-27T04:34:24.822Z,100388.74
2017-11-27T04:36:50.757Z,100382.70
2017-11-27T04:39:16.709Z,100382.21
2017-11-27T04:41:42.645Z,100372.89
2017-11-27T04:44:08.577Z,100374.90
2017-11-27T04:46:34.514Z,100376.50
2017-11-27T04:49:00.491Z,100377.80
2017-11-27T04:51:26.436Z,100381.00
2017-11-27T04:53:52.379Z,100385.31
2017-11-27T04:56:18.307Z,100389.09
2017-11-27T04:58:44.246Z,100382.62
2017-11-27T05:01:10.514Z,100391.43
2017-11-27T05:03:36.457Z,100393.94
2017-11-27T05:06:02.387Z,100387.36
2017-11-27T05:08:28.321Z,100389.75
2017-11-27T05:10:54.250Z,100389.74
2017-11-27T05:13:20.206Z,100381.88
2017-11-27T05:15:46.157Z,100381.33
2017-11-27T05:18:12.076Z,100380.80
2017-11-27T05:20:38.025Z,100376.89
2017-11-27T05:23:03.971Z,100378.41
2017-11-27T05:25:29.909Z,100373.45
2017-11-27T05:27:55.850Z,100366.09
2017-11-27T05:30:21.773Z,100373.11
2017-11-27T05:32:47.687Z,100382.19
2017-11-27T05:35:13.615Z,100375.41
2017-11-27T05:37:39.551Z,100386.72
2017-11-27T05:40:05.493Z,100381.51
2017-11-27T05:42:31.447Z,100387.75
2017-11-27T05:44:57.396Z,100394.04
2017-11-27T05:47:23.315Z,100385.67
2017-11-27T05:49:49.249Z,100389.41
2017-11-27T05:52:15.317Z,100377.47
2017-11-27T05:54:41.257Z,100378.41
2017-11-27T05:57:07.202Z,100385.47
2017-11-27T05:59:33.140Z,100382.64
2017-11-27T06:01:59.091Z,100378.12
2017-11-27T06:04:25.058Z,100377.84
2017-11-27T06:06:51.014Z,100378.58
2017-11-27T06:09:16.964Z,100378.28
2017-11-27T06:11:42.905Z,100373.05
2017-11-27T06:14:08.866Z,100371.91
2017-11-27T06:16:34.927Z,100368.25
2017-11-27T06:19:00.907Z,100364.78
2017-11-27T06:21:26.857Z,100367.61
2017-11-27T06:23:52.791Z,100364.57
2017-11-27T06:26:18.739Z,100365.97
2017-11-27T06:28:44.929Z,100365.49
2017-11-27T06:31:10.879Z,100364.62
2017-11-27T06:33:37.017Z,100369.07
2017-11-27T06:36:02.963Z,100367.17
2017-11-27T06:38:28.924Z,100370.64
2017-11-27T06:40:54.889Z,100372.75
2017-11-27T06:43:20.814Z,100373.60
2017-11-27T06:45:46.771Z,100371.63
2017-11-27T06:48:12.701Z,100369.29
2017-11-27T06:50:38.623Z,100369.25
2017-11-27T06:53:04.576Z,100369.64
2017-11-27T06:55:30.521Z,100375.34
2017-11-27T06:57:56.449Z,100369.08
2017-11-27T07:00:22.410Z,100362.51
2017-11-27T07:02:48.354Z,100369.84
2017-11-27T07:05:14.286Z,100374.91
2017-11-27T07:07:40.233Z,100377.38
2017-11-27T07:10:06.170Z,100369.98
2017-11-27T07:12:32.244Z,100372.27
2017-11-27T07:14:58.224Z,100373.74
2017-11-27T07:17:24.166Z,100366.00
2017-11-27T07:19:50.371Z,100373.44
2017-11-27T07:22:16.309Z,100375.55
2017-11-27T07:24:42.367Z,100373.28
2017-11-27T07:27:08.319Z,100359.13
2017-11-27T07:29:34.242Z,100359.21
2017-11-27T07:32:00.183Z,100361.01
2017-11-27T07:34:26.127Z,100355.28
2017-11-27T07:36:52.069Z,100361.64
2017-11-27T07:39:18.017Z,100361.95
2017-11-27T07:41:43.949Z,100362.22
2017-11-27T07:44:09.885Z,100362.30
2017-11-27T07:46:35.829Z,100360.61
2017-11-27T07:49:01.918Z,100360.91
2017-11-27T07:51:27.919Z,100354.94
2017-11-27T07:53:53.841Z,100346.41
2017-11-27T07:56:19.783Z,100348.16
2017-11-27T07:58:45.751Z,100345.04
2017-11-27T08:01:11.716Z,100344.61
2017-11-27T08:03:37.713Z,100353.73
2017-11-27T08:06:03.665Z,100351.45
2017-11-27T08:08:29.596Z,100348.98
2017-11-27T08:10:55.521Z,100351.74
2017-11-27T08:13:21.480Z,100344.13
2017-11-27T08:15:47.413Z,100350.73
2017-11-27T08:18:13.441Z,100346.80
2017-11-27T08:20:39.367Z,100350.20
2017-11-27T08:23:05.291Z,100344.11
2017-11-27T08:25:31.232Z,100333.53
2017-11-27T08:27:57.171Z,100342.56
2017-11-27T08:30:23.139Z,100336.67
2017-11-27T08:32:49.066Z,100342.46
2017-11-27T08:35:15.019Z,100330.28
2017-11-27T08:37:41.018Z,100333.62
2017-11-27T08:40:06.967Z,100338.35
2017-11-27T08:42:32.912Z,100340.38
2017-11-27T08:44:58.864Z,100332.70
2017-11-27T08:47:24.808Z,100345.13
2017-11-27T08:49:50.749Z,100339.73
2017-11-27T08:52:16.685Z,100343.48
2017-11-27T08:54:42.609Z,100337.44
2017-11-27T08:57:08.538Z,100338.69
2017-11-27T08:59:34.467Z,100333.62
2017-11-27T09:02:00.388Z,100336.09
2017-11-27T09:04:26.318Z,100320.02
2017-11-27T09:06:52.244Z,100332.56
2017-11-27T09:09:18.192Z,100327.66
2017-11-27T09:11:44.120Z,100327.59
2017-11-27T09:14:10.067Z,100317.56
2017-11-27T09:16:36.001Z,100321.16
2017-11-27T09:19:01.918Z,100314.63
2017-11-27T09:21:27.852Z,100317.66
2017-11-27T09:23:53.786Z,100315.81
2017-11-27T09:26:19.708Z,100305.95
2017-11-27T09:28:45.636Z,100309.26
2017-11-27T09:31:11.576Z,100302.33
2017-11-27T09:33:37.520Z,100295.39
2017-11-27T09:36:03.438Z,100290.25
2017-11-27T09:38:29.381Z,100287.20
2017-11-27T09:40:55.316Z,100286.69
2017-11-27T09:43:21.311Z,100284.84
2017-11-27T09:45:47.241Z,100285.03
2017-11-27T09:48:13.176Z,100266.78
2017-11-27T09:50:39.128Z,100272.02
2017-11-27T09:53:05.065Z,100258.05
2017-11-27T09:55:30.996Z,100260.51
2017-11-27T09:57:56.951Z,100253.72
2017-11-27T10:00:22.900Z,100243.48
2017-11-27T10:02:48.854Z,100250.10
2017-11-27T10:05:14.803Z,100252.12
2017-11-27T10:07:40.740Z,100239.25
2017-11-27T10:10:06.671Z,100241.06
2017-11-27T10:12:32.792Z,100234.02
2017-11-27T10:14:58.751Z,100225.28
2017-11-27T10:17:25.406Z,100216.97
2017-11-27T10:19:51.378Z,100204.31
2017-11-27T10:22:17.394Z,100204.69
2017-11-27T10:24:43.325Z,100195.20
2017-11-27T10:27:09.268Z,100194.81
2017-11-27T10:29:35.225Z,100191.50
2017-11-27T10:32:01.148Z,100180.36
2017-11-27T10:34:27.095Z,100184.81
2017-11-27T10:36:53.029Z,100183.52
2017-11-27T10:39:18.973Z,100170.44
2017-11-27T10:41:44.905Z,100165.16
2017-11-27T10:44:10.830Z,100159.16
2017-11-27T10:46:36.785Z,100155.46
2017-11-27T10:49:02.751Z,100158.84
2017-11-27T10:51:28.689Z,100144.65
2017-11-27T10:53:54.615Z,100140.16
2017-11-27T10:56:20.612Z,100131.56
2017-11-27T10:58:46.551Z,100124.95
2017-11-27T11:01:12.477Z,100125.88
2017-11-27T11:03:38.408Z,100113.70
2017-11-27T11:06:04.353Z,100112.49
2017-11-27T11:08:30.291Z,100106.55
2017-11-27T11:10:56.230Z,100110.95
2017-11-27T11:13:22.166Z,100102.02
2017-11-27T11:15:48.099Z,100100.77
2017-11-27T11:18:14.041Z,100088.99
2017-11-27T11:20:39.981Z,100086.02
2017-11-27T11:23:05.941Z,100085.56
2017-11-27T11:25:31.867Z,100091.72
2017-11-27T11:27:57.893Z,100083.11
2017-11-27T11:30:23.825Z,100075.42
2017-11-27T11:32:49.749Z,100082.24
2017-11-27T11:35:15.735Z,100077.84
2017-11-27T11:37:41.663Z,100069.94
2017-11-27T11:40:07.616Z,100070.55
2017-11-27T11:42:33.567Z,100065.53
2017-11-27T11:44:59.504Z,100066.65
2017-11-27T11:47:25.590Z,100071.91
2017-11-27T11:49:51.521Z,100070.29
2017-11-27T11:52:17.439Z,100064.38
2017-11-27T11:54:43.379Z,100059.18
2017-11-27T11:57:09.314Z,100049.92
2017-11-27T11:59:35.268Z,100045.30
2017-11-27T12:02:01.203Z,100048.02
2017-11-27T12:04:27.135Z,100049.27
2017-11-27T12:06:53.075Z,100034.06
2017-11-27T12:09:19.017Z,100041.57
2017-11-27T12:11:44.958Z,100033.43
2017-11-27T12:14:10.939Z,100033.69
2017-11-27T12:16:36.863Z,100029.72
2017-11-27T12:19:02.785Z,100025.28
2017-11-27T12:21:28.722Z,100036.45
2017-11-27T12:23:55.013Z,100024.27
2017-11-27T12:26:20.935Z,100017.98
2017-11-27T12:28:46.877Z,100013.05
2017-11-27T12:31:12.805Z,99998.12
2017-11-27T12:33:38.741Z,100002.03
2017-11-27T12:36:04.693Z,99999.92
2017-11-27T12:38:30.634Z,99998.28
2017-11-27T12:40:56.561Z,99984.33
2017-11-27T12:43:22.485Z,99978.14
2017-11-27T12:45:48.427Z,99973.50
2017-11-27T12:48:14.390Z,99975.04
2017-11-27T12:50:40.334Z,99972.66
2017-11-27T12:53:06.273Z,99970.95
2017-11-27T12:55:32.187Z,99969.46
2017-11-27T12:57:58.109Z,99964.14
2017-11-27T13:00:24.055Z,99970.84
2017-11-27T13:02:49.997Z,99960.39
2017-11-27T13:05:15.940Z,99958.41
2017-11-27T13:07:41.881Z,99958.81
2017-11-27T13:10:07.812Z,99956.05
2017-11-27T13:12:33.751Z,99950.77
2017-11-27T13:14:59.715Z,99951.34
2017-11-27T13:17:25.639Z,99948.88
2017-11-27T13:19:51.580Z,99946.86
2017-11-27T13:22:17.522Z,99936.77
2017-11-27T13:24:43.447Z,99938.63
2017-11-27T13:27:09.377Z,99937.05
2017-11-27T13:29:35.300Z,99934.72
2017-11-27T13:32:01.333Z,99930.95
2017-11-27T13:34:27.279Z,99919.39
2017-11-27T13:36:53.223Z,99920.11
2017-11-27T13:39:19.171Z,99913.76
2017-11-27T13:41:45.117Z,99906.64
2017-11-27T13:44:11.059Z,99915.45
2017-11-27T13:46:37.106Z,99909.72
2017-11-27T13:49:03.043Z,99910.41
2017-11-27T13:51:28.970Z,99904.16
2017-11-27T13:53:54.897Z,99901.81
2017-11-27T13:56:20.862Z,99900.45
2017-11-27T13:58:46.804Z,99895.53
2017-11-27T14:01:12.733Z,99884.00
2017-11-27T14:03:38.684Z,99884.23
2017-11-27T14:06:04.617Z,99887.52
2017-11-27T14:08:30.549Z,99877.16
2017-11-27T14:10:56.474Z,99880.61
2017-11-27T14:13:22.397Z,99880.44
2017-11-27T14:15:48.326Z,99874.49
2017-11-27T14:18:14.322Z,99873.16
2017-11-27T14:20:40.271Z,99869.03
2017-11-27T14:23:06.411Z,99870.16
2017-11-27T14:25:32.357Z,99869.79
2017-11-27T14:27:58.295Z,99863.70
2017-11-27T14:30:24.243Z,99860.86
2017-11-27T14:32:50.185Z,99849.00
2017-11-27T14:35:16.133Z,99849.80
2017-11-27T14:37:42.089Z,99846.75
2017-11-27T14:40:09.102Z,99845.20
2017-11-27T14:42:35.057Z,99836.20
2017-11-27T14:45:01.042Z,99836.09
2017-11-27T14:47:27.023Z,99826.63
2017-11-27T14:49:52.968Z,99830.06
2017-11-27T14:52:19.125Z,99815.41
2017-11-27T14:54:45.074Z,99807.80
2017-11-27T14:57:11.011Z,99805.53
2017-11-27T14:59:36.966Z,99794.41
2017-11-27T15:02:02.918Z,99790.78
2017-11-27T15:04:28.865Z,99779.61
2017-11-27T15:06:54.816Z,99770.83
2017-11-27T15:09:20.747Z,99770.36
2017-11-27T15:11:46.696Z,99761.90
2017-11-27T15:14:12.682Z,99749.55
2017-11-27T15:16:38.615Z,99741.59
2017-11-27T15:19:04.563Z,99739.43
2017-11-27T15:21:30.506Z,99733.67
2017-11-27T15:23:56.452Z,99742.67
2017-11-27T15:26:22.398Z,99718.44
2017-11-27T15:28:48.345Z,99727.95
2017-11-27T15:31:14.289Z,99716.02
2017-11-27T15:33:40.223Z,99700.33
2017-11-27T15:36:06.179Z,99706.62
2017-11-27T15:38:32.123Z,99694.92
2017-11-27T15:40:58.062Z,99708.84
2017-11-27T15:43:24.009Z,99696.98
2017-11-27T15:45:49.951Z,99684.22
2017-11-27T15:48:15.877Z,99680.17
2017-11-27T15:50:41.842Z,99676.34
2017-11-27T15:53:07.782Z,99670.23
2017-11-27T15:55:33.701Z,99667.09
2017-11-27T15:57:59.630Z,99661.51
2017-11-27T16:00:25.553Z,99653.55
2017-11-27T16:02:51.497Z,99656.40
2017-11-27T16:05:17.429Z,99652.41
2017-11-27T16:07:43.370Z,99641.25
2017-11-27T16:10:09.301Z,99645.65
2017-11-27T16:12:35.246Z,99649.56
2017-11-27T16:15:01.205Z,99637.54
2017-11-27T16:17:27.146Z,99641.54
2017-11-27T16:19:53.112Z,99623.42
2017-11-27T16:22:19.077Z,99616.70
2017-11-27T16:24:45.008Z,99616.66
2017-11-27T16:27:10.948Z,99602.17
2017-11-27T16:29:36.880Z,99593.45
2017-11-27T16:32:03.013Z,99587.24
2017-11-27T16:34:28.937Z,99588.30
2017-11-27T16:36:54.872Z,99591.63
2017-11-27T16:39:20.837Z,99590.85
2017-11-27T16:41:46.761Z,99576.48
2017-11-27T16:44:12.725Z,99573.42
2017-11-27T16:46:38.673Z,99571.47
2017-11-27T16:49:04.599Z,99573.02
2017-11-27T16:51:30.639Z,99558.76
2017-11-27T16:53:56.599Z,99561.63
2017-11-27T16:56:22.565Z,99560.24
2017-11-27T16:58:48.521Z,99557.68
2017-11-27T17:01:14.467Z,99543.75
2017-11-27T17:03:40.463Z,99541.83
2017-11-27T17:06:06.411Z,99542.94
2017-11-27T17:08:32.372Z,99546.98
2017-11-27T17:10:58.297Z,99539.02
2017-11-27T17:13:24.227Z,99537.88
2017-11-27T17:15:50.198Z,99540.78
2017-11-27T17:18:16.142Z,99534.88
2017-11-27T17:20:42.087Z,99535.02
2017-11-27T17:23:08.030Z,99531.03
2017-11-27T17:25:33.983Z,99535.77
2017-11-27T17:27:59.947Z,99527.66
2017-11-27T17:30:25.883Z,99538.16
2017-11-27T17:32:51.821Z,99525.48
2017-11-27T17:35:17.793Z,99525.98
2017-11-27T17:37:43.957Z,99526.52
2017-11-27T17:40:09.900Z,99509.77
2017-11-27T17:42:35.897Z,99519.36
2017-11-27T17:45:01.861Z,99501.66
2017-11-27T17:47:27.867Z,99498.70
2017-11-27T17:49:53.837Z,99492.58
2017-11-27T17:52:19.772Z,99500.41
2017-11-27T17:54:45.729Z,99490.01
2017-11-27T17:57:11.684Z,99496.45
2017-11-27T17:59:37.628Z,99487.00
2017-11-27T18:02:03.594Z,99480.11
2017-11-27T18:04:29.556Z,99489.39
2017-11-27T18:06:55.511Z,99480.23
2017-11-27T18:09:21.509Z,99476.79
2017-11-27T18:11:47.535Z,99473.83
2017-11-27T18:14:13.493Z,99475.75
2017-11-27T18:16:39.509Z,99470.44
2017-11-27T18:19:05.501Z,99458.64
2017-11-27T18:21:31.505Z,99455.36
2017-11-27T18:23:57.470Z,99454.65
2017-11-27T18:26:23.445Z,99449.23
2017-11-27T18:28:49.437Z,99449.27
2017-11-27T18:31:15.413Z,99446.19
2017-11-27T18:33:41.383Z,99436.67
2017-11-27T18:36:07.347Z,99437.42
2017-11-27T18:38:33.342Z,99433.33
2017-11-27T18:40:59.361Z,99436.59
2017-11-27T18:43:25.314Z,99428.70
2017-11-27T18:45:51.243Z,99428.69
2017-11-27T18:48:17.190Z,99424.36
2017-11-27T18:50:43.119Z,99415.64
2017-11-27T18:53:09.067Z,99423.73
2017-11-27T18:55:35.015Z,99416.83
2017-11-27T18:58:00.969Z,99413.52
2017-11-27T19:00:26.902Z,99413.84
2017-11-27T19:02:52.862Z,99417.70
2017-11-27T19:05:18.801Z,99403.84
2017-11-27T19:07:44.930Z,99410.21
2017-11-27T19:10:10.875Z,99396.94
2017-11-27T19:12:36.825Z,99397.48
2017-11-27T19:15:02.761Z,99386.06
2017-11-27T19:17:28.695Z,99384.75
2017-11-27T19:19:54.659Z,99377.20
2017-11-27T19:22:20.731Z,99374.27
2017-11-27T19:24:46.679Z,99366.84
2017-11-27T19:27:12.644Z,99367.06
2017-11-27T19:29:38.623Z,99360.52
2017-11-27T19:32:04.609Z,99365.58
2017-11-27T19:34:30.681Z,99363.72
2017-11-27T19:36:56.662Z,99359.59
2017-11-27T19:39:22.727Z,99348.77
2017-11-27T19:41:48.665Z,99350.86
2017-11-27T19:44:14.641Z,99348.03
2017-11-27T19:46:40.604Z,99353.83
2017-11-27T19:49:06.553Z,99342.99
2017-11-27T19:51:32.516Z,99348.33
2017-11-27T19:53:58.495Z,99343.30
2017-11-27T19:56:24.635Z,99342.42
2017-11-27T19:58:50.637Z,99338.69
2017-11-27T20:01:16.717Z,99333.69
2017-11-27T20:03:42.725Z,99341.75
2017-11-27T20:06:08.697Z,99327.20
2017-11-27T20:08:34.678Z,99333.91
2017-11-27T20:11:00.687Z,99334.67
2017-11-27T20:13:26.688Z,99328.14
2017-11-27T20:15:52.682Z,99327.66
2017-11-27T20:18:18.692Z,99315.11
2017-11-27T20:20:44.863Z,99323.94
2017-11-27T20:23:10.797Z,99320.41
2017-11-27T20:25:36.741Z,99318.20
2017-11-27T20:28:02.718Z,99310.74
2017-11-27T20:30:28.692Z,99312.42
2017-11-27T20:32:54.654Z,99320.78
2017-11-27T20:35:20.592Z,99309.09
2017-11-27T20:37:46.569Z,99302.95
2017-11-27T20:40:12.533Z,99300.41
2017-11-27T20:42:38.478Z,99299.14
2017-11-27T20:45:04.461Z,99293.33
2017-11-27T20:47:30.421Z,99291.18
2017-11-27T20:49:56.369Z,99295.11
2017-11-27T20:52:22.319Z,99293.83
2017-11-27T20:54:48.297Z,99284.52
2017-11-27T20:57:14.321Z,99286.15
2017-11-27T20:59:40.403Z,99275.84
2017-11-27T21:02:06.412Z,99279.55
2017-11-27T21:04:32.435Z,99280.07
2017-11-27T21:06:58.425Z,99281.16
2017-11-27T21:09:24.387Z,99272.83
2017-11-27T21:11:50.329Z,99270.27
2017-11-27T21:14:16.521Z,99267.48
2017-11-27T21:16:42.461Z,99268.53
2017-11-27T21:19:08.403Z,99262.66
2017-11-27T21:21:34.353Z,99258.02
2017-11-27T21:24:00.302Z,99252.28
2017-11-27T21:26:26.235Z,99257.81
2017-11-27T21:28:52.186Z,99259.34
2017-11-27T21:31:18.138Z,99250.58
2017-11-27T21:33:44.289Z,99245.10
2017-11-27T21:36:10.223Z,99248.81
2017-11-27T21:38:36.169Z,99242.11
2017-11-27T21:41:02.190Z,99247.77
2017-11-27T21:43:28.165Z,99236.41
2017-11-27T21:45:54.116Z,99242.80
2017-11-27T21:48:20.081Z,99235.53
2017-11-27T21:50:46.053Z,99232.97
2017-11-27T21:53:12.026Z,99232.23
2017-11-27T21:55:37.969Z,99224.20
2017-11-27T21:58:04.170Z,99227.15
2017-11-27T22:00:30.127Z,99224.61
2017-11-27T22:02:56.064Z,99220.10
2017-11-27T22:05:22.002Z,99225.63
2017-11-27T22:07:47.935Z,99220.07
2017-11-27T22:10:14.128Z,99220.44
2017-11-27T22:12:40.094Z,99214.98
2017-11-27T22:15:06.032Z,99211.81
2017-11-27T22:17:31.965Z,99207.17
2017-11-27T22:19:57.906Z,99204.70
2017-11-27T22:22:23.963Z,99200.49
2017-11-27T22:24:49.928Z,99198.32
2017-11-27T22:27:15.851Z,99194.56
2017-11-27T22:29:41.780Z,99193.78
2017-11-27T22:32:07.708Z,99191.25
2017-11-27T22:34:33.643Z,99189.69
2017-11-27T22:36:59.599Z,99173.31
2017-11-27T22:39:25.552Z,99184.27
2017-11-27T22:41:51.485Z,99176.69
2017-11-27T22:44:17.431Z,99178.80
2017-11-27T22:46:43.361Z,99178.78
2017-11-27T22:49:09.281Z,99182.09
2017-11-27T22:51:35.261Z,99175.38
2017-11-27T22:54:01.184Z,99175.45
2017-11-27T22:56:27.114Z,99163.34
2017-11-27T22:58:53.154Z,99168.80
2017-11-27T23:01:19.133Z,99165.52
2017-11-27T23:03:45.069Z,99147.08
2017-11-27T23:06:11.004Z,99149.17
2017-11-27T23:08:36.932Z,99154.98
2017-11-27T23:11:02.869Z,99142.06
2017-11-27T23:13:28.816Z,99140.77
2017-11-27T23:15:54.758Z,99140.81
2017-11-27T23:18:20.713Z,99146.26
2017-11-27T23:20:46.644Z,99134.16
2017-11-27T23:23:12.574Z,99131.60
2017-11-27T23:25:38.501Z,99129.91
2017-11-27T23:28:04.434Z,99122.01
2017-11-27T23:30:30.376Z,99121.59
2017-11-27T23:32:56.314Z,99114.05
2017-11-27T23:35:22.271Z,99111.49
2017-11-27T23:37:48.206Z,99116.14
2017-11-27T23:40:14.139Z,99113.61
2017-11-27T23:42:40.083Z,99108.96
2017-11-27T23:45:06.053Z,99105.70
2017-11-27T23:47:31.999Z,99114.88
2017-11-27T23:49:57.930Z,99111.11
2017-11-27T23:52:23.864Z,99105.28
2017-11-27T23:54:49.811Z,99105.28
2017-11-27T23:57:15.741Z,99102.31
2017-11-27T23:59:41.678Z,99110.73
